sensor_id;sensor_type;location;lat;lon;timestamp;P1;durP1;ratioP1;P2;durP2;ratioP2
54388;SDS011;40975;50.390;8.640;2023-08-08T00:01:40;4.00;;;1.42;;
54388;SDS011;40975;50.390;8.640;2023-08-08T00:04:08;1.20;;;1.10;;
54388;SDS011;40975;50.390;8.640;2023-08-08T00:06:34;3.25;;;1.67;;
54388;SDS011;40975;50.390;8.640;2023-08-08T00:09:00;3.97;;;1.40;;
54388;SDS011;40975;50.390;8.640;2023-08-08T00:11:26;1.08;;;0.88;;
54388;SDS011;40975;50.390;8.640;2023-08-08T00:13:52;3.10;;;1.33;;
54388;SDS011;40975;50.390;8.640;2023-08-08T00:16:18;2.17;;;1.08;;
54388;SDS011;40975;50.390;8.640;2023-08-08T00:18:43;5.80;;;1.27;;
54388;SDS011;40975;50.390;8.640;2023-08-08T00:21:08;2.25;;;1.27;;
54388;SDS011;40975;50.390;8.640;2023-08-08T00:23:34;3.78;;;1.15;;
54388;SDS011;40975;50.390;8.640;2023-08-08T00:25:59;2.00;;;1.20;;
54388;SDS011;40975;50.390;8.640;2023-08-08T00:28:24;1.75;;;0.90;;
54388;SDS011;40975;50.390;8.640;2023-08-08T00:30:50;2.72;;;1.35;;
54388;SDS011;40975;50.390;8.640;2023-08-08T00:33:15;2.83;;;1.02;;
54388;SDS011;40975;50.390;8.640;2023-08-08T00:35:40;1.25;;;1.10;;
54388;SDS011;40975;50.390;8.640;2023-08-08T00:38:06;1.70;;;1.20;;
54388;SDS011;40975;50.390;8.640;2023-08-08T00:40:31;2.38;;;1.30;;
54388;SDS011;40975;50.390;8.640;2023-08-08T00:42:57;1.88;;;1.10;;
54388;SDS011;40975;50.390;8.640;2023-08-08T00:45:23;2.60;;;1.10;;
54388;SDS011;40975;50.390;8.640;2023-08-08T00:47:49;2.50;;;1.17;;
54388;SDS011;40975;50.390;8.640;2023-08-08T00:50:15;2.28;;;1.00;;
54388;SDS011;40975;50.390;8.640;2023-08-08T00:52:41;3.25;;;1.60;;
54388;SDS011;40975;50.390;8.640;2023-08-08T00:55:08;1.30;;;1.00;;
54388;SDS011;40975;50.390;8.640;2023-08-08T00:57:34;2.28;;;1.20;;
54388;SDS011;40975;50.390;8.640;2023-08-08T01:00:03;1.27;;;1.00;;
54388;SDS011;40975;50.390;8.640;2023-08-08T01:02:34;1.40;;;1.10;;
54388;SDS011;40975;50.390;8.640;2023-08-08T01:04:59;2.10;;;1.02;;
54388;SDS011;40975;50.390;8.640;2023-08-08T01:07:28;1.40;;;0.90;;
54388;SDS011;40975;50.390;8.640;2023-08-08T01:10:03;2.28;;;1.33;;
54388;SDS011;40975;50.390;8.640;2023-08-08T01:12:46;1.58;;;1.25;;
54388;SDS011;40975;50.390;8.640;2023-08-08T01:15:16;4.00;;;1.55;;
54388;SDS011;40975;50.390;8.640;2023-08-08T01:17:43;3.03;;;1.10;;
54388;SDS011;40975;50.390;8.640;2023-08-08T01:20:10;2.30;;;1.33;;
54388;SDS011;40975;50.390;8.640;2023-08-08T01:22:39;2.50;;;1.00;;
54388;SDS011;40975;50.390;8.640;2023-08-08T01:25:13;4.45;;;1.30;;
54388;SDS011;40975;50.390;8.640;2023-08-08T01:27:38;1.90;;;1.27;;
54388;SDS011;40975;50.390;8.640;2023-08-08T01:30:06;2.33;;;1.00;;
54388;SDS011;40975;50.390;8.640;2023-08-08T01:32:32;1.27;;;1.13;;
54388;SDS011;40975;50.390;8.640;2023-08-08T01:34:57;1.92;;;1.10;;
54388;SDS011;40975;50.390;8.640;2023-08-08T01:37:24;1.75;;;1.10;;
54388;SDS011;40975;50.390;8.640;2023-08-08T01:39:57;5.57;;;1.25;;
54388;SDS011;40975;50.390;8.640;2023-08-08T01:42:24;1.60;;;1.27;;
54388;SDS011;40975;50.390;8.640;2023-08-08T01:44:50;2.03;;;1.33;;
54388;SDS011;40975;50.390;8.640;2023-08-08T01:47:17;1.60;;;0.98;;
54388;SDS011;40975;50.390;8.640;2023-08-08T01:49:43;1.45;;;1.10;;
54388;SDS011;40975;50.390;8.640;2023-08-08T01:52:08;1.55;;;0.90;;
54388;SDS011;40975;50.390;8.640;2023-08-08T01:54:34;2.63;;;1.35;;
54388;SDS011;40975;50.390;8.640;2023-08-08T01:56:59;1.10;;;0.90;;
54388;SDS011;40975;50.390;8.640;2023-08-08T01:59:24;2.28;;;2.08;;
54388;SDS011;40975;50.390;8.640;2023-08-08T02:01:50;1.63;;;0.95;;
54388;SDS011;40975;50.390;8.640;2023-08-08T02:04:15;1.52;;;1.10;;
54388;SDS011;40975;50.390;8.640;2023-08-08T02:06:40;2.50;;;1.27;;
54388;SDS011;40975;50.390;8.640;2023-08-08T02:09:06;1.23;;;0.93;;
54388;SDS011;40975;50.390;8.640;2023-08-08T02:11:33;1.23;;;1.13;;
54388;SDS011;40975;50.390;8.640;2023-08-08T02:13:59;1.88;;;1.00;;
54388;SDS011;40975;50.390;8.640;2023-08-08T02:16:24;3.17;;;0.98;;
54388;SDS011;40975;50.390;8.640;2023-08-08T02:18:49;1.70;;;1.45;;
54388;SDS011;40975;50.390;8.640;2023-08-08T02:21:14;2.10;;;1.40;;
54388;SDS011;40975;50.390;8.640;2023-08-08T02:23:40;1.40;;;1.10;;
54388;SDS011;40975;50.390;8.640;2023-08-08T02:26:05;2.00;;;1.40;;
54388;SDS011;40975;50.390;8.640;2023-08-08T02:28:31;1.55;;;1.23;;
54388;SDS011;40975;50.390;8.640;2023-08-08T02:30:56;2.28;;;0.90;;
54388;SDS011;40975;50.390;8.640;2023-08-08T02:33:21;1.50;;;1.13;;
54388;SDS011;40975;50.390;8.640;2023-08-08T02:35:47;3.15;;;1.27;;
54388;SDS011;40975;50.390;8.640;2023-08-08T02:38:13;1.55;;;1.10;;
54388;SDS011;40975;50.390;8.640;2023-08-08T02:40:39;2.63;;;1.30;;
54388;SDS011;40975;50.390;8.640;2023-08-08T02:43:05;3.08;;;1.20;;
54388;SDS011;40975;50.390;8.640;2023-08-08T02:45:30;5.03;;;1.60;;
54388;SDS011;40975;50.390;8.640;2023-08-08T02:47:55;1.15;;;0.93;;
54388;SDS011;40975;50.390;8.640;2023-08-08T02:50:21;1.50;;;1.20;;
54388;SDS011;40975;50.390;8.640;2023-08-08T02:52:46;4.50;;;1.60;;
54388;SDS011;40975;50.390;8.640;2023-08-08T02:55:12;1.13;;;0.93;;
54388;SDS011;40975;50.390;8.640;2023-08-08T02:57:38;2.65;;;1.30;;
54388;SDS011;40975;50.390;8.640;2023-08-08T03:00:03;2.10;;;1.38;;
54388;SDS011;40975;50.390;8.640;2023-08-08T03:02:33;2.60;;;1.50;;
54388;SDS011;40975;50.390;8.640;2023-08-08T03:04:59;1.35;;;1.20;;
54388;SDS011;40975;50.390;8.640;2023-08-08T03:07:25;2.05;;;1.30;;
54388;SDS011;40975;50.390;8.640;2023-08-08T03:09:50;1.73;;;1.63;;
54388;SDS011;40975;50.390;8.640;2023-08-08T03:12:15;1.77;;;1.13;;
54388;SDS011;40975;50.390;8.640;2023-08-08T03:14:41;1.75;;;1.55;;
54388;SDS011;40975;50.390;8.640;2023-08-08T03:17:06;1.73;;;1.20;;
54388;SDS011;40975;50.390;8.640;2023-08-08T03:19:32;3.17;;;1.27;;
54388;SDS011;40975;50.390;8.640;2023-08-08T03:21:59;3.42;;;1.42;;
54388;SDS011;40975;50.390;8.640;2023-08-08T03:24:25;3.35;;;1.50;;
54388;SDS011;40975;50.390;8.640;2023-08-08T03:26:50;4.22;;;1.50;;
54388;SDS011;40975;50.390;8.640;2023-08-08T03:29:15;1.95;;;1.55;;
54388;SDS011;40975;50.390;8.640;2023-08-08T03:31:45;1.58;;;1.25;;
54388;SDS011;40975;50.390;8.640;2023-08-08T03:34:11;2.38;;;1.38;;
54388;SDS011;40975;50.390;8.640;2023-08-08T03:36:36;1.23;;;1.10;;
54388;SDS011;40975;50.390;8.640;2023-08-08T03:39:03;1.50;;;1.30;;
54388;SDS011;40975;50.390;8.640;2023-08-08T03:41:29;1.88;;;1.30;;
54388;SDS011;40975;50.390;8.640;2023-08-08T03:43:54;1.58;;;1.20;;
54388;SDS011;40975;50.390;8.640;2023-08-08T03:46:22;1.40;;;1.30;;
54388;SDS011;40975;50.390;8.640;2023-08-08T03:48:47;1.50;;;1.20;;
54388;SDS011;40975;50.390;8.640;2023-08-08T03:51:13;4.53;;;1.65;;
54388;SDS011;40975;50.390;8.640;2023-08-08T03:53:38;5.07;;;1.60;;
54388;SDS011;40975;50.390;8.640;2023-08-08T03:56:05;1.85;;;1.55;;
54388;SDS011;40975;50.390;8.640;2023-08-08T03:58:30;2.70;;;1.38;;
54388;SDS011;40975;50.390;8.640;2023-08-08T04:00:55;2.28;;;1.50;;
54388;SDS011;40975;50.390;8.640;2023-08-08T04:03:21;1.70;;;1.58;;
54388;SDS011;40975;50.390;8.640;2023-08-08T04:05:47;1.98;;;1.50;;
54388;SDS011;40975;50.390;8.640;2023-08-08T04:08:14;3.15;;;1.95;;
54388;SDS011;40975;50.390;8.640;2023-08-08T04:10:40;1.90;;;1.60;;
54388;SDS011;40975;50.390;8.640;2023-08-08T04:13:05;3.63;;;1.27;;
54388;SDS011;40975;50.390;8.640;2023-08-08T04:15:30;1.60;;;1.50;;
54388;SDS011;40975;50.390;8.640;2023-08-08T04:17:56;1.85;;;1.40;;
54388;SDS011;40975;50.390;8.640;2023-08-08T04:20:21;2.25;;;1.40;;
54388;SDS011;40975;50.390;8.640;2023-08-08T04:22:47;2.88;;;1.52;;
54388;SDS011;40975;50.390;8.640;2023-08-08T04:25:12;2.75;;;1.60;;
54388;SDS011;40975;50.390;8.640;2023-08-08T04:27:37;3.63;;;1.80;;
54388;SDS011;40975;50.390;8.640;2023-08-08T04:30:03;1.70;;;1.55;;
54388;SDS011;40975;50.390;8.640;2023-08-08T04:32:29;3.30;;;1.80;;
54388;SDS011;40975;50.390;8.640;2023-08-08T04:34:54;2.70;;;1.40;;
54388;SDS011;40975;50.390;8.640;2023-08-08T04:37:20;3.05;;;1.80;;
54388;SDS011;40975;50.390;8.640;2023-08-08T04:39:45;1.63;;;1.42;;
54388;SDS011;40975;50.390;8.640;2023-08-08T04:42:10;4.00;;;1.20;;
54388;SDS011;40975;50.390;8.640;2023-08-08T04:44:36;2.80;;;1.52;;
54388;SDS011;40975;50.390;8.640;2023-08-08T04:47:01;3.20;;;1.52;;
54388;SDS011;40975;50.390;8.640;2023-08-08T04:49:26;2.88;;;1.45;;
54388;SDS011;40975;50.390;8.640;2023-08-08T04:51:52;1.67;;;1.50;;
54388;SDS011;40975;50.390;8.640;2023-08-08T04:54:17;2.90;;;2.00;;
54388;SDS011;40975;50.390;8.640;2023-08-08T04:56:42;2.92;;;1.80;;
54388;SDS011;40975;50.390;8.640;2023-08-08T04:59:07;1.98;;;1.70;;
54388;SDS011;40975;50.390;8.640;2023-08-08T05:01:33;2.40;;;1.65;;
54388;SDS011;40975;50.390;8.640;2023-08-08T05:03:58;3.70;;;1.90;;
54388;SDS011;40975;50.390;8.640;2023-08-08T05:06:23;3.00;;;1.98;;
54388;SDS011;40975;50.390;8.640;2023-08-08T05:08:50;1.70;;;1.60;;
54388;SDS011;40975;50.390;8.640;2023-08-08T05:11:16;2.42;;;1.48;;
54388;SDS011;40975;50.390;8.640;2023-08-08T05:13:42;2.03;;;1.60;;
54388;SDS011;40975;50.390;8.640;2023-08-08T05:16:08;3.42;;;1.52;;
54388;SDS011;40975;50.390;8.640;2023-08-08T05:18:33;3.88;;;1.50;;
54388;SDS011;40975;50.390;8.640;2023-08-08T05:20:59;4.38;;;1.50;;
54388;SDS011;40975;50.390;8.640;2023-08-08T05:23:24;4.63;;;1.40;;
54388;SDS011;40975;50.390;8.640;2023-08-08T05:25:49;3.13;;;1.50;;
54388;SDS011;40975;50.390;8.640;2023-08-08T05:28:14;2.00;;;1.60;;
54388;SDS011;40975;50.390;8.640;2023-08-08T05:30:40;1.55;;;1.33;;
54388;SDS011;40975;50.390;8.640;2023-08-08T05:33:05;2.55;;;1.33;;
54388;SDS011;40975;50.390;8.640;2023-08-08T05:35:30;2.28;;;1.65;;
54388;SDS011;40975;50.390;8.640;2023-08-08T05:37:56;2.80;;;1.50;;
54388;SDS011;40975;50.390;8.640;2023-08-08T05:40:21;1.95;;;1.30;;
54388;SDS011;40975;50.390;8.640;2023-08-08T05:42:46;1.20;;;0.90;;
54388;SDS011;40975;50.390;8.640;2023-08-08T05:45:12;2.80;;;1.42;;
54388;SDS011;40975;50.390;8.640;2023-08-08T05:47:37;1.25;;;1.15;;
54388;SDS011;40975;50.390;8.640;2023-08-08T05:50:02;3.13;;;1.20;;
54388;SDS011;40975;50.390;8.640;2023-08-08T05:52:28;1.73;;;1.00;;
54388;SDS011;40975;50.390;8.640;2023-08-08T05:54:54;4.38;;;1.25;;
54388;SDS011;40975;50.390;8.640;2023-08-08T05:57:19;2.15;;;0.93;;
54388;SDS011;40975;50.390;8.640;2023-08-08T05:59:46;1.67;;;1.00;;
54388;SDS011;40975;50.390;8.640;2023-08-08T06:02:11;0.80;;;0.80;;
54388;SDS011;40975;50.390;8.640;2023-08-08T06:04:37;1.75;;;0.93;;
54388;SDS011;40975;50.390;8.640;2023-08-08T06:07:02;3.33;;;0.90;;
54388;SDS011;40975;50.390;8.640;2023-08-08T06:09:28;1.60;;;1.38;;
54388;SDS011;40975;50.390;8.640;2023-08-08T06:11:53;2.38;;;0.90;;
54388;SDS011;40975;50.390;8.640;2023-08-08T06:14:18;3.30;;;0.85;;
54388;SDS011;40975;50.390;8.640;2023-08-08T06:16:44;2.55;;;0.82;;
54388;SDS011;40975;50.390;8.640;2023-08-08T06:19:09;0.88;;;0.70;;
54388;SDS011;40975;50.390;8.640;2023-08-08T06:21:35;1.50;;;1.00;;
54388;SDS011;40975;50.390;8.640;2023-08-08T06:24:00;0.88;;;0.70;;
54388;SDS011;40975;50.390;8.640;2023-08-08T06:26:26;1.63;;;0.95;;
54388;SDS011;40975;50.390;8.640;2023-08-08T06:28:51;1.13;;;0.80;;
54388;SDS011;40975;50.390;8.640;2023-08-08T06:31:17;4.22;;;0.60;;
54388;SDS011;40975;50.390;8.640;2023-08-08T06:33:43;0.68;;;0.68;;
54388;SDS011;40975;50.390;8.640;2023-08-08T06:36:09;1.90;;;0.70;;
54388;SDS011;40975;50.390;8.640;2023-08-08T06:38:34;1.35;;;0.60;;
54388;SDS011;40975;50.390;8.640;2023-08-08T06:41:00;1.08;;;0.70;;
54388;SDS011;40975;50.390;8.640;2023-08-08T06:43:25;0.65;;;0.63;;
54388;SDS011;40975;50.390;8.640;2023-08-08T06:45:51;2.05;;;0.80;;
54388;SDS011;40975;50.390;8.640;2023-08-08T06:48:16;2.40;;;0.60;;
54388;SDS011;40975;50.390;8.640;2023-08-08T06:50:42;2.03;;;0.82;;
54388;SDS011;40975;50.390;8.640;2023-08-08T06:53:07;2.75;;;0.40;;
54388;SDS011;40975;50.390;8.640;2023-08-08T06:55:33;1.58;;;0.70;;
54388;SDS011;40975;50.390;8.640;2023-08-08T06:57:58;1.50;;;0.60;;
54388;SDS011;40975;50.390;8.640;2023-08-08T07:00:23;1.02;;;0.50;;
54388;SDS011;40975;50.390;8.640;2023-08-08T07:02:49;0.95;;;0.60;;
54388;SDS011;40975;50.390;8.640;2023-08-08T07:05:14;1.88;;;0.70;;
54388;SDS011;40975;50.390;8.640;2023-08-08T07:07:40;2.60;;;0.60;;
54388;SDS011;40975;50.390;8.640;2023-08-08T07:10:05;2.28;;;0.82;;
54388;SDS011;40975;50.390;8.640;2023-08-08T07:12:31;2.67;;;0.63;;
54388;SDS011;40975;50.390;8.640;2023-08-08T07:14:57;1.08;;;0.63;;
54388;SDS011;40975;50.390;8.640;2023-08-08T07:17:22;4.70;;;0.75;;
54388;SDS011;40975;50.390;8.640;2023-08-08T07:19:47;0.82;;;0.80;;
54388;SDS011;40975;50.390;8.640;2023-08-08T07:22:13;2.88;;;0.93;;
54388;SDS011;40975;50.390;8.640;2023-08-08T07:24:38;2.00;;;0.57;;
54388;SDS011;40975;50.390;8.640;2023-08-08T07:27:04;1.58;;;0.77;;
54388;SDS011;40975;50.390;8.640;2023-08-08T07:29:29;1.67;;;0.70;;
54388;SDS011;40975;50.390;8.640;2023-08-08T07:31:55;1.10;;;0.70;;
54388;SDS011;40975;50.390;8.640;2023-08-08T07:34:20;0.70;;;0.70;;
54388;SDS011;40975;50.390;8.640;2023-08-08T07:36:46;1.45;;;0.68;;
54388;SDS011;40975;50.390;8.640;2023-08-08T07:39:12;1.38;;;0.50;;
54388;SDS011;40975;50.390;8.640;2023-08-08T07:41:37;1.05;;;0.50;;
54388;SDS011;40975;50.390;8.640;2023-08-08T07:44:03;1.58;;;0.70;;
54388;SDS011;40975;50.390;8.640;2023-08-08T07:46:28;2.08;;;0.63;;
54388;SDS011;40975;50.390;8.640;2023-08-08T07:48:53;0.82;;;0.70;;
54388;SDS011;40975;50.390;8.640;2023-08-08T07:51:19;1.15;;;0.70;;
54388;SDS011;40975;50.390;8.640;2023-08-08T07:53:44;1.13;;;0.68;;
54388;SDS011;40975;50.390;8.640;2023-08-08T07:56:09;1.60;;;0.60;;
54388;SDS011;40975;50.390;8.640;2023-08-08T07:58:35;2.63;;;1.05;;
54388;SDS011;40975;50.390;8.640;2023-08-08T08:01:00;1.58;;;0.50;;
54388;SDS011;40975;50.390;8.640;2023-08-08T08:03:26;1.02;;;0.70;;
54388;SDS011;40975;50.390;8.640;2023-08-08T08:05:52;4.55;;;0.73;;
54388;SDS011;40975;50.390;8.640;2023-08-08T08:08:17;1.45;;;0.70;;
54388;SDS011;40975;50.390;8.640;2023-08-08T08:10:43;0.88;;;0.70;;
54388;SDS011;40975;50.390;8.640;2023-08-08T08:13:08;3.05;;;0.93;;
54388;SDS011;40975;50.390;8.640;2023-08-08T08:15:35;1.30;;;0.75;;
54388;SDS011;40975;50.390;8.640;2023-08-08T08:18:01;2.78;;;0.82;;
54388;SDS011;40975;50.390;8.640;2023-08-08T08:20:26;0.98;;;0.80;;
54388;SDS011;40975;50.390;8.640;2023-08-08T08:22:51;0.73;;;0.70;;
54388;SDS011;40975;50.390;8.640;2023-08-08T08:25:17;0.75;;;0.70;;
54388;SDS011;40975;50.390;8.640;2023-08-08T08:27:42;1.45;;;0.60;;
54388;SDS011;40975;50.390;8.640;2023-08-08T08:30:07;1.88;;;0.88;;
54388;SDS011;40975;50.390;8.640;2023-08-08T08:32:35;1.92;;;0.75;;
54388;SDS011;40975;50.390;8.640;2023-08-08T08:35:01;2.55;;;1.70;;
54388;SDS011;40975;50.390;8.640;2023-08-08T08:37:29;1.13;;;0.68;;
54388;SDS011;40975;50.390;8.640;2023-08-08T08:39:54;1.83;;;0.88;;
54388;SDS011;40975;50.390;8.640;2023-08-08T08:42:20;1.58;;;0.88;;
54388;SDS011;40975;50.390;8.640;2023-08-08T08:44:45;4.95;;;1.35;;
54388;SDS011;40975;50.390;8.640;2023-08-08T08:47:11;1.92;;;0.80;;
54388;SDS011;40975;50.390;8.640;2023-08-08T08:49:38;2.33;;;0.77;;
54388;SDS011;40975;50.390;8.640;2023-08-08T08:52:03;2.58;;;0.65;;
54388;SDS011;40975;50.390;8.640;2023-08-08T08:54:31;1.65;;;0.85;;
54388;SDS011;40975;50.390;8.640;2023-08-08T08:56:57;3.53;;;0.90;;
54388;SDS011;40975;50.390;8.640;2023-08-08T08:59:22;1.10;;;0.90;;
54388;SDS011;40975;50.390;8.640;2023-08-08T09:01:49;0.60;;;0.60;;
54388;SDS011;40975;50.390;8.640;2023-08-08T09:04:14;1.83;;;0.85;;
54388;SDS011;40975;50.390;8.640;2023-08-08T09:06:43;3.03;;;0.82;;
54388;SDS011;40975;50.390;8.640;2023-08-08T09:09:11;1.05;;;0.70;;
54388;SDS011;40975;50.390;8.640;2023-08-08T09:11:37;2.40;;;0.90;;
54388;SDS011;40975;50.390;8.640;2023-08-08T09:14:14;2.13;;;0.80;;
54388;SDS011;40975;50.390;8.640;2023-08-08T09:16:41;2.83;;;0.95;;
54388;SDS011;40975;50.390;8.640;2023-08-08T09:19:07;1.88;;;0.85;;
54388;SDS011;40975;50.390;8.640;2023-08-08T09:21:33;1.20;;;0.70;;
54388;SDS011;40975;50.390;8.640;2023-08-08T09:23:58;4.93;;;0.95;;
54388;SDS011;40975;50.390;8.640;2023-08-08T09:26:23;2.45;;;0.80;;
54388;SDS011;40975;50.390;8.640;2023-08-08T09:28:49;2.42;;;0.88;;
54388;SDS011;40975;50.390;8.640;2023-08-08T09:31:15;1.38;;;0.70;;
54388;SDS011;40975;50.390;8.640;2023-08-08T09:33:41;1.15;;;0.70;;
54388;SDS011;40975;50.390;8.640;2023-08-08T09:36:13;1.00;;;0.70;;
54388;SDS011;40975;50.390;8.640;2023-08-08T09:38:41;2.45;;;1.00;;
54388;SDS011;40975;50.390;8.640;2023-08-08T09:41:06;1.30;;;0.77;;
54388;SDS011;40975;50.390;8.640;2023-08-08T09:43:32;2.03;;;1.35;;
54388;SDS011;40975;50.390;8.640;2023-08-08T09:45:57;2.55;;;1.05;;
54388;SDS011;40975;50.390;8.640;2023-08-08T09:48:29;1.88;;;0.90;;
54388;SDS011;40975;50.390;8.640;2023-08-08T09:50:55;1.17;;;0.65;;
54388;SDS011;40975;50.390;8.640;2023-08-08T09:53:21;1.77;;;0.80;;
54388;SDS011;40975;50.390;8.640;2023-08-08T09:55:47;4.63;;;0.90;;
54388;SDS011;40975;50.390;8.640;2023-08-08T09:58:14;3.95;;;0.80;;
54388;SDS011;40975;50.390;8.640;2023-08-08T10:00:39;3.45;;;0.95;;
54388;SDS011;40975;50.390;8.640;2023-08-08T10:03:06;1.45;;;0.80;;
54388;SDS011;40975;50.390;8.640;2023-08-08T10:05:32;0.90;;;0.70;;
54388;SDS011;40975;50.390;8.640;2023-08-08T10:07:57;3.00;;;1.00;;
54388;SDS011;40975;50.390;8.640;2023-08-08T10:10:23;2.00;;;0.90;;
54388;SDS011;40975;50.390;8.640;2023-08-08T10:12:49;1.35;;;0.80;;
54388;SDS011;40975;50.390;8.640;2023-08-08T10:15:14;1.60;;;0.80;;
54388;SDS011;40975;50.390;8.640;2023-08-08T10:17:41;3.78;;;1.33;;
54388;SDS011;40975;50.390;8.640;2023-08-08T10:20:08;2.17;;;1.00;;
54388;SDS011;40975;50.390;8.640;2023-08-08T10:22:41;2.63;;;1.10;;
54388;SDS011;40975;50.390;8.640;2023-08-08T10:25:08;2.53;;;1.20;;
54388;SDS011;40975;50.390;8.640;2023-08-08T10:27:34;1.67;;;0.90;;
54388;SDS011;40975;50.390;8.640;2023-08-08T10:30:01;2.20;;;0.95;;
54388;SDS011;40975;50.390;8.640;2023-08-08T10:32:42;4.97;;;0.95;;
54388;SDS011;40975;50.390;8.640;2023-08-08T10:35:09;1.75;;;0.70;;
54388;SDS011;40975;50.390;8.640;2023-08-08T10:37:36;1.27;;;0.90;;
54388;SDS011;40975;50.390;8.640;2023-08-08T10:40:02;1.58;;;0.90;;
54388;SDS011;40975;50.390;8.640;2023-08-08T10:42:31;2.20;;;0.90;;
54388;SDS011;40975;50.390;8.640;2023-08-08T10:44:59;2.00;;;0.88;;
54388;SDS011;40975;50.390;8.640;2023-08-08T10:47:29;2.13;;;0.98;;
54388;SDS011;40975;50.390;8.640;2023-08-08T10:49:56;1.85;;;0.80;;
54388;SDS011;40975;50.390;8.640;2023-08-08T10:52:23;3.15;;;1.02;;
54388;SDS011;40975;50.390;8.640;2023-08-08T10:54:52;2.42;;;1.02;;
54388;SDS011;40975;50.390;8.640;2023-08-08T10:57:18;1.90;;;1.00;;
54388;SDS011;40975;50.390;8.640;2023-08-08T10:59:44;2.38;;;1.05;;
54388;SDS011;40975;50.390;8.640;2023-08-08T11:02:09;3.42;;;0.90;;
54388;SDS011;40975;50.390;8.640;2023-08-08T11:04:35;2.53;;;0.93;;
54388;SDS011;40975;50.390;8.640;2023-08-08T11:07:01;2.33;;;0.90;;
54388;SDS011;40975;50.390;8.640;2023-08-08T11:09:26;1.50;;;0.90;;
54388;SDS011;40975;50.390;8.640;2023-08-08T11:11:52;7.35;;;2.22;;
54388;SDS011;40975;50.390;8.640;2023-08-08T11:14:18;0.95;;;0.82;;
54388;SDS011;40975;50.390;8.640;2023-08-08T11:16:45;2.88;;;0.90;;
54388;SDS011;40975;50.390;8.640;2023-08-08T11:19:12;2.60;;;1.05;;
54388;SDS011;40975;50.390;8.640;2023-08-08T11:21:43;2.42;;;1.02;;
54388;SDS011;40975;50.390;8.640;2023-08-08T11:24:10;2.35;;;0.80;;
54388;SDS011;40975;50.390;8.640;2023-08-08T11:26:36;1.23;;;0.75;;
54388;SDS011;40975;50.390;8.640;2023-08-08T11:29:04;2.35;;;0.90;;
54388;SDS011;40975;50.390;8.640;2023-08-08T11:31:36;2.67;;;1.00;;
54388;SDS011;40975;50.390;8.640;2023-08-08T11:34:03;3.47;;;1.13;;
54388;SDS011;40975;50.390;8.640;2023-08-08T11:36:30;2.42;;;1.05;;
54388;SDS011;40975;50.390;8.640;2023-08-08T11:38:58;3.22;;;1.73;;
54388;SDS011;40975;50.390;8.640;2023-08-08T11:41:26;2.85;;;1.05;;
54388;SDS011;40975;50.390;8.640;2023-08-08T11:43:51;2.55;;;1.00;;
54388;SDS011;40975;50.390;8.640;2023-08-08T11:46:18;3.90;;;0.90;;
54388;SDS011;40975;50.390;8.640;2023-08-08T11:48:47;2.15;;;1.23;;
54388;SDS011;40975;50.390;8.640;2023-08-08T11:51:13;1.35;;;1.08;;
54388;SDS011;40975;50.390;8.640;2023-08-08T11:53:50;2.28;;;0.98;;
54388;SDS011;40975;50.390;8.640;2023-08-08T11:56:17;1.52;;;0.98;;
54388;SDS011;40975;50.390;8.640;2023-08-08T11:58:43;2.60;;;1.00;;
54388;SDS011;40975;50.390;8.640;2023-08-08T12:01:09;2.42;;;0.90;;
54388;SDS011;40975;50.390;8.640;2023-08-08T12:03:37;2.30;;;1.15;;
54388;SDS011;40975;50.390;8.640;2023-08-08T12:06:13;2.88;;;1.00;;
54388;SDS011;40975;50.390;8.640;2023-08-08T12:08:43;2.45;;;1.00;;
54388;SDS011;40975;50.390;8.640;2023-08-08T12:11:09;1.92;;;1.05;;
54388;SDS011;40975;50.390;8.640;2023-08-08T12:13:40;2.28;;;1.10;;
54388;SDS011;40975;50.390;8.640;2023-08-08T12:16:08;2.28;;;1.00;;
54388;SDS011;40975;50.390;8.640;2023-08-08T12:18:35;2.83;;;0.80;;
54388;SDS011;40975;50.390;8.640;2023-08-08T12:21:03;3.10;;;0.85;;
54388;SDS011;40975;50.390;8.640;2023-08-08T12:23:32;1.52;;;0.70;;
54388;SDS011;40975;50.390;8.640;2023-08-08T12:25:58;1.80;;;0.82;;
54388;SDS011;40975;50.390;8.640;2023-08-08T12:28:24;1.10;;;0.90;;
54388;SDS011;40975;50.390;8.640;2023-08-08T12:30:50;4.45;;;1.42;;
54388;SDS011;40975;50.390;8.640;2023-08-08T12:33:15;3.45;;;0.80;;
54388;SDS011;40975;50.390;8.640;2023-08-08T12:35:40;2.00;;;0.93;;
54388;SDS011;40975;50.390;8.640;2023-08-08T12:38:06;2.90;;;0.90;;
54388;SDS011;40975;50.390;8.640;2023-08-08T12:40:31;2.20;;;0.80;;
54388;SDS011;40975;50.390;8.640;2023-08-08T12:42:57;1.45;;;0.90;;
54388;SDS011;40975;50.390;8.640;2023-08-08T12:45:22;3.50;;;1.05;;
54388;SDS011;40975;50.390;8.640;2023-08-08T12:47:47;2.63;;;1.30;;
54388;SDS011;40975;50.390;8.640;2023-08-08T12:50:13;3.40;;;1.00;;
54388;SDS011;40975;50.390;8.640;2023-08-08T12:52:38;3.22;;;0.95;;
54388;SDS011;40975;50.390;8.640;2023-08-08T12:55:04;2.78;;;0.90;;
54388;SDS011;40975;50.390;8.640;2023-08-08T12:57:31;2.17;;;0.88;;
54388;SDS011;40975;50.390;8.640;2023-08-08T12:59:56;1.83;;;0.90;;
54388;SDS011;40975;50.390;8.640;2023-08-08T13:02:22;2.65;;;1.05;;
54388;SDS011;40975;50.390;8.640;2023-08-08T13:04:47;1.35;;;0.90;;
54388;SDS011;40975;50.390;8.640;2023-08-08T13:07:12;2.85;;;1.10;;
54388;SDS011;40975;50.390;8.640;2023-08-08T13:09:37;2.00;;;0.90;;
54388;SDS011;40975;50.390;8.640;2023-08-08T13:12:04;1.40;;;0.70;;
54388;SDS011;40975;50.390;8.640;2023-08-08T13:14:30;2.65;;;0.82;;
54388;SDS011;40975;50.390;8.640;2023-08-08T13:16:55;1.70;;;1.02;;
54388;SDS011;40975;50.390;8.640;2023-08-08T13:19:20;1.23;;;0.57;;
54388;SDS011;40975;50.390;8.640;2023-08-08T13:21:49;1.40;;;0.90;;
54388;SDS011;40975;50.390;8.640;2023-08-08T13:24:15;3.22;;;1.00;;
54388;SDS011;40975;50.390;8.640;2023-08-08T13:26:41;1.45;;;0.80;;
54388;SDS011;40975;50.390;8.640;2023-08-08T13:29:07;2.05;;;0.80;;
54388;SDS011;40975;50.390;8.640;2023-08-08T13:31:33;2.80;;;1.15;;
54388;SDS011;40975;50.390;8.640;2023-08-08T13:33:58;1.58;;;0.90;;
54388;SDS011;40975;50.390;8.640;2023-08-08T13:36:24;1.23;;;0.60;;
54388;SDS011;40975;50.390;8.640;2023-08-08T13:38:49;2.53;;;0.85;;
54388;SDS011;40975;50.390;8.640;2023-08-08T13:41:14;2.05;;;0.88;;
54388;SDS011;40975;50.390;8.640;2023-08-08T13:43:39;3.00;;;0.70;;
54388;SDS011;40975;50.390;8.640;2023-08-08T13:46:05;0.95;;;0.70;;
54388;SDS011;40975;50.390;8.640;2023-08-08T13:48:33;1.90;;;1.00;;
54388;SDS011;40975;50.390;8.640;2023-08-08T13:50:59;2.38;;;0.82;;
54388;SDS011;40975;50.390;8.640;2023-08-08T13:53:25;3.53;;;0.77;;
54388;SDS011;40975;50.390;8.640;2023-08-08T13:55:50;1.40;;;0.75;;
54388;SDS011;40975;50.390;8.640;2023-08-08T13:58:15;1.58;;;0.75;;
54388;SDS011;40975;50.390;8.640;2023-08-08T14:00:40;1.45;;;0.85;;
54388;SDS011;40975;50.390;8.640;2023-08-08T14:03:06;1.98;;;0.88;;
54388;SDS011;40975;50.390;8.640;2023-08-08T14:05:31;2.38;;;0.82;;
54388;SDS011;40975;50.390;8.640;2023-08-08T14:07:57;0.75;;;0.70;;
54388;SDS011;40975;50.390;8.640;2023-08-08T14:10:22;1.75;;;0.90;;
54388;SDS011;40975;50.390;8.640;2023-08-08T14:12:47;2.15;;;0.80;;
54388;SDS011;40975;50.390;8.640;2023-08-08T14:15:13;3.03;;;1.23;;
54388;SDS011;40975;50.390;8.640;2023-08-08T14:17:38;1.75;;;0.73;;
54388;SDS011;40975;50.390;8.640;2023-08-08T14:20:03;3.85;;;0.75;;
54388;SDS011;40975;50.390;8.640;2023-08-08T14:22:30;2.83;;;0.93;;
54388;SDS011;40975;50.390;8.640;2023-08-08T14:24:55;4.18;;;0.90;;
54388;SDS011;40975;50.390;8.640;2023-08-08T14:27:20;1.60;;;0.75;;
54388;SDS011;40975;50.390;8.640;2023-08-08T14:29:46;0.85;;;0.80;;
54388;SDS011;40975;50.390;8.640;2023-08-08T14:32:11;2.25;;;1.08;;
54388;SDS011;40975;50.390;8.640;2023-08-08T14:34:37;0.75;;;0.55;;
54388;SDS011;40975;50.390;8.640;2023-08-08T14:37:05;2.80;;;1.30;;
54388;SDS011;40975;50.390;8.640;2023-08-08T14:39:31;3.13;;;1.40;;
54388;SDS011;40975;50.390;8.640;2023-08-08T14:41:56;2.53;;;1.40;;